createdAt,value
2023-04-20T05:01:14.311Z,26.02
2023-04-20T05:02:14.405Z,25.98
2023-04-20T05:03:14.512Z,25.98
2023-04-20T05:04:14.534Z,25.98
2023-04-20T05:05:14.460Z,25.99
2023-04-20T05:06:14.454Z,25.98
2023-04-20T05:07:14.526Z,26.00
2023-04-20T05:08:14.553Z,26.02
2023-04-20T05:09:14.623Z,26.03
2023-04-20T05:10:15.206Z,26.00
2023-04-20T05:11:14.588Z,25.99
2023-04-20T05:12:14.585Z,26.02
2023-04-20T05:13:14.600Z,26.02
2023-04-20T05:14:14.648Z,26.05
2023-04-20T05:15:14.708Z,26.02
2023-04-20T05:16:14.804Z,26.05
2023-04-20T05:17:14.838Z,26.06
2023-04-20T05:18:14.851Z,26.05
2023-04-20T05:19:14.955Z,26.05
2023-04-20T05:20:14.980Z,26.06
2023-04-20T05:21:15.064Z,26.07
2023-04-20T05:22:15.090Z,26.05
2023-04-20T05:23:15.150Z,26.07
2023-04-20T05:24:15.171Z,26.09
2023-04-20T05:25:15.247Z,26.07
2023-04-20T05:26:15.266Z,26.07
2023-04-20T05:27:15.346Z,26.07
2023-04-20T05:28:15.447Z,26.10
2023-04-20T05:29:15.528Z,26.10
2023-04-20T05:30:21.559Z,26.10
2023-04-20T05:31:16.564Z,26.12
2023-04-20T05:32:15.476Z,26.13
2023-04-20T05:33:15.573Z,26.12
2023-04-20T05:34:15.469Z,26.15
2023-04-20T05:35:15.442Z,26.12
2023-04-20T05:36:15.459Z,26.12
2023-04-20T05:37:15.409Z,26.12
2023-04-20T05:38:15.448Z,26.12
2023-04-20T05:39:15.630Z,26.09
2023-04-20T05:40:15.449Z,26.07
2023-04-20T05:41:15.504Z,26.10
2023-04-20T05:42:15.516Z,26.07
2023-04-20T05:43:15.584Z,26.07
2023-04-20T05:44:15.601Z,26.06
2023-04-20T05:45:15.665Z,26.07
2023-04-20T05:46:15.735Z,26.07
2023-04-20T05:47:15.719Z,26.07
2023-04-20T05:48:15.772Z,26.07
2023-04-20T05:49:15.972Z,26.06
2023-04-20T05:50:15.804Z,26.09
2023-04-20T05:51:15.872Z,26.03
2023-04-20T05:52:15.893Z,26.05
2023-04-20T05:53:16.044Z,26.06
2023-04-20T05:54:15.960Z,26.06
2023-04-20T05:55:18.399Z,26.07
2023-04-20T05:56:15.994Z,26.06
2023-04-20T05:57:15.998Z,26.06
2023-04-20T05:58:15.956Z,26.09
2023-04-20T05:59:16.252Z,26.09
2023-04-20T06:00:15.971Z,26.10
2023-04-20T06:01:15.941Z,26.13
2023-04-20T06:02:16.013Z,26.12
2023-04-20T06:03:16.167Z,26.12
2023-04-20T06:04:16.292Z,26.09
2023-04-20T06:05:15.970Z,26.17
2023-04-20T06:06:16.806Z,26.19
2023-04-20T06:07:15.924Z,26.25
2023-04-20T06:08:15.899Z,26.23
2023-04-20T06:09:16.027Z,26.15
2023-04-20T06:10:15.887Z,26.15
2023-04-20T06:11:15.870Z,26.13
2023-04-20T06:12:15.885Z,26.02
2023-04-20T06:13:15.864Z,25.99
2023-04-20T06:14:15.830Z,25.85
2023-04-20T06:15:15.835Z,25.84
2023-04-20T06:16:15.857Z,25.84
2023-04-20T06:17:16.746Z,25.81
2023-04-20T06:18:15.809Z,25.81
2023-04-20T06:19:16.082Z,25.81
2023-04-20T06:20:15.821Z,25.78
2023-04-20T06:21:15.792Z,25.78
2023-04-20T06:22:15.809Z,25.77
2023-04-20T06:23:15.767Z,25.77
2023-04-20T06:24:15.758Z,25.68
2023-04-20T06:25:15.992Z,25.65
2023-04-20T06:26:15.787Z,25.62
2023-04-20T06:27:15.802Z,25.58
2023-04-20T06:28:15.758Z,25.62
2023-04-20T06:29:15.992Z,25.62
2023-04-20T06:30:15.738Z,25.61
2023-04-20T06:31:15.781Z,25.62
2023-04-20T06:32:15.708Z,25.65
2023-04-20T06:33:15.703Z,25.68
2023-04-20T06:34:15.690Z,25.72
2023-04-20T06:35:15.690Z,25.74
2023-04-20T06:36:15.686Z,25.78
2023-04-20T06:37:15.837Z,25.84
2023-04-20T06:38:15.690Z,25.82
2023-04-20T06:39:16.022Z,25.89
2023-04-20T06:40:16.354Z,25.91
2023-04-20T06:41:15.668Z,25.93
2023-04-20T06:42:15.613Z,25.99
2023-04-20T06:43:15.667Z,25.98
2023-04-20T06:44:15.620Z,26.00
2023-04-20T06:45:15.649Z,26.05
2023-04-20T06:46:15.642Z,26.05
2023-04-20T06:47:15.706Z,26.07
2023-04-20T06:48:30.793Z,26.13
2023-04-20T06:49:16.823Z,26.16
2023-04-20T06:50:15.602Z,26.16
2023-04-20T06:51:15.597Z,26.20
2023-04-20T06:52:15.624Z,26.22
2023-04-20T06:53:15.562Z,26.22
2023-04-20T06:54:15.563Z,26.20
2023-04-20T06:55:15.570Z,26.23
2023-04-20T06:56:15.556Z,26.26
2023-04-20T06:57:15.516Z,26.29
2023-04-20T06:58:15.519Z,26.33
2023-04-20T06:59:15.727Z,26.33
2023-04-20T07:00:15.641Z,26.36
2023-04-20T07:01:15.675Z,26.33
2023-04-20T07:02:15.844Z,26.33
2023-04-20T07:03:15.961Z,26.29
2023-04-20T07:04:15.958Z,26.35
2023-04-20T07:05:15.953Z,26.32
2023-04-20T07:06:16.763Z,26.30
2023-04-20T07:07:17.771Z,26.33
2023-04-20T07:08:16.302Z,26.30
2023-04-20T07:09:16.271Z,26.33
2023-04-20T07:10:16.297Z,26.35
2023-04-20T07:11:16.288Z,26.33
2023-04-20T07:12:16.344Z,26.35
2023-04-20T07:13:16.386Z,26.32
2023-04-20T07:14:16.423Z,26.35
2023-04-20T07:15:16.472Z,26.35
2023-04-20T07:16:16.642Z,26.35
2023-04-20T07:17:16.622Z,26.27
2023-04-20T07:18:16.666Z,26.33
2023-04-20T07:19:16.810Z,26.36
2023-04-20T07:20:16.782Z,26.39
2023-04-20T07:21:16.808Z,26.40
2023-04-20T07:22:16.807Z,26.44
2023-04-20T07:23:16.878Z,26.43
2023-04-20T07:24:16.883Z,26.47
2023-04-20T07:25:16.922Z,26.48
2023-04-20T07:26:16.978Z,26.51
2023-04-20T07:27:16.959Z,26.53
2023-04-20T07:28:16.965Z,26.58
2023-04-20T07:29:17.265Z,26.56
2023-04-20T07:30:17.029Z,26.57
2023-04-20T07:31:17.093Z,26.58
2023-04-20T07:32:17.170Z,26.61
2023-04-20T07:33:17.081Z,26.66
2023-04-20T07:34:17.269Z,26.66
2023-04-20T07:35:17.080Z,26.68
2023-04-20T07:36:17.110Z,26.70
2023-04-20T07:37:17.088Z,26.71
2023-04-20T07:38:17.115Z,26.74
2023-04-20T07:39:17.382Z,26.74
2023-04-20T07:40:17.081Z,26.75
2023-04-20T07:41:17.211Z,26.73
2023-04-20T07:42:17.103Z,26.68
2023-04-20T07:43:17.055Z,26.67
2023-04-20T07:44:17.068Z,26.71
2023-04-20T07:45:17.061Z,26.75
2023-04-20T07:46:17.235Z,26.75
2023-04-20T07:47:17.107Z,26.78
2023-04-20T07:48:17.104Z,26.78
2023-04-20T07:49:17.401Z,26.85
2023-04-20T07:50:17.156Z,26.87
2023-04-20T07:51:17.187Z,26.88
2023-04-20T07:52:17.617Z,26.93
2023-04-20T07:53:17.256Z,26.93
2023-04-20T07:54:17.318Z,26.93
2023-04-20T07:55:17.337Z,26.87
2023-04-20T07:56:17.353Z,26.94
2023-04-20T07:57:17.402Z,26.93
2023-04-20T07:58:17.430Z,26.91
2023-04-20T07:59:17.577Z,26.93
2023-04-20T08:00:17.505Z,26.95
2023-04-20T08:01:17.532Z,26.95
2023-04-20T08:02:17.676Z,26.97
2023-04-20T08:03:17.773Z,26.97
2023-04-20T08:04:17.887Z,26.98
2023-04-20T08:05:17.869Z,26.98
2023-04-20T08:06:17.809Z,26.98
2023-04-20T08:07:17.990Z,26.97
2023-04-20T08:08:17.950Z,26.88
2023-04-20T08:09:18.097Z,26.91
2023-04-20T08:10:17.999Z,26.93
2023-04-20T08:11:18.096Z,26.95
2023-04-20T08:12:18.130Z,26.94
2023-04-20T08:13:18.226Z,26.95
2023-04-20T08:14:18.394Z,26.97
2023-04-20T08:15:18.208Z,26.95
2023-04-20T08:16:18.312Z,26.91
2023-04-20T08:17:18.212Z,26.91
2023-04-20T08:18:19.523Z,26.83
2023-04-20T08:19:18.374Z,26.81
2023-04-20T08:20:18.205Z,26.80
2023-04-20T08:21:18.233Z,26.83
2023-04-20T08:22:18.213Z,26.78
2023-04-20T08:23:18.240Z,26.77
2023-04-20T08:24:18.484Z,26.78
2023-04-20T08:25:18.194Z,26.74
2023-04-20T08:26:18.147Z,26.75
2023-04-20T08:27:18.197Z,26.73
2023-04-20T08:28:32.460Z,26.73
2023-04-20T08:29:19.365Z,26.66
2023-04-20T08:30:18.134Z,26.63
2023-04-20T08:31:18.179Z,26.67
2023-04-20T08:32:18.167Z,26.66
2023-04-20T08:33:18.138Z,26.68
2023-04-20T08:34:18.106Z,26.68
2023-04-20T08:35:18.133Z,26.68
2023-04-20T08:36:18.119Z,26.68
2023-04-20T08:37:18.128Z,26.70
2023-04-20T08:38:20.820Z,26.71
2023-04-20T08:39:19.062Z,26.71
2023-04-20T08:40:18.062Z,26.71
2023-04-20T08:41:18.074Z,26.71
2023-04-20T08:42:18.049Z,26.73
2023-04-20T08:43:18.068Z,26.73
2023-04-20T08:44:18.303Z,26.73
2023-04-20T08:45:18.051Z,26.71
2023-04-20T08:46:18.024Z,26.71
2023-04-20T08:47:18.069Z,26.58
2023-04-20T08:48:18.029Z,26.68
2023-04-20T08:49:18.011Z,26.70
2023-04-20T08:50:17.995Z,26.71
2023-04-20T08:51:17.991Z,26.73
2023-04-20T08:52:17.971Z,26.74
2023-04-20T08:53:17.980Z,26.70
2023-04-20T08:54:18.320Z,26.64
2023-04-20T08:55:17.953Z,26.71
2023-04-20T08:56:17.963Z,26.71
2023-04-20T08:57:17.939Z,26.78
2023-04-20T08:58:17.961Z,26.80
2023-04-20T08:59:17.957Z,26.84
2023-04-20T09:00:17.907Z,26.87
2023-04-20T09:01:22.656Z,26.94
2023-04-20T09:02:19.016Z,26.98
2023-04-20T09:03:18.228Z,26.97
2023-04-20T09:04:18.681Z,27.04
2023-04-20T09:05:17.950Z,27.05
2023-04-20T09:06:17.876Z,27.09
2023-04-20T09:07:17.888Z,27.14
2023-04-20T09:08:17.901Z,27.16
2023-04-20T09:09:17.862Z,27.19
2023-04-20T09:10:17.893Z,27.22
2023-04-20T09:11:17.851Z,27.24
2023-04-20T09:12:17.845Z,27.26
2023-04-20T09:13:17.902Z,27.25
2023-04-20T09:14:18.505Z,27.29
2023-04-20T09:15:17.995Z,27.29
2023-04-20T09:16:18.026Z,27.34
2023-04-20T09:17:18.340Z,27.38
2023-04-20T09:18:18.067Z,27.39
2023-04-20T09:19:18.105Z,27.42
2023-04-20T09:20:18.116Z,27.43
2023-04-20T09:21:18.120Z,27.48
2023-04-20T09:22:18.192Z,27.46
2023-04-20T09:23:18.163Z,27.53
2023-04-20T09:24:18.280Z,27.50
2023-04-20T09:25:18.200Z,27.53
2023-04-20T09:26:18.189Z,27.52
2023-04-20T09:27:18.259Z,27.56
2023-04-20T09:28:18.216Z,27.57
2023-04-20T09:29:18.210Z,27.60
2023-04-20T09:30:18.223Z,27.63
2023-04-20T09:31:18.290Z,27.66
2023-04-20T09:32:18.251Z,27.64
2023-04-20T09:33:18.220Z,27.69
2023-04-20T09:34:18.408Z,27.70
2023-04-20T09:35:18.259Z,27.72
2023-04-20T09:36:18.247Z,27.72
2023-04-20T09:37:18.221Z,27.74
2023-04-20T09:38:18.262Z,27.73
2023-04-20T09:39:18.247Z,27.74
2023-04-20T09:40:18.244Z,27.74
2023-04-20T09:41:18.224Z,27.73
2023-04-20T09:42:18.263Z,27.70
2023-04-20T09:43:18.215Z,27.69
2023-04-20T09:44:18.500Z,27.63
2023-04-20T09:45:18.310Z,27.50
2023-04-20T09:46:18.391Z,27.36
2023-04-20T09:47:18.353Z,27.24
2023-04-20T09:48:18.360Z,27.06
2023-04-20T09:49:18.449Z,26.94
2023-04-20T09:50:26.719Z,26.81
2023-04-20T09:51:19.477Z,26.71
2023-04-20T09:52:18.519Z,26.58
2023-04-20T09:53:18.528Z,26.47
2023-04-20T09:54:18.579Z,26.35
2023-04-20T09:55:18.450Z,26.26
2023-04-20T09:56:18.464Z,26.13
2023-04-20T09:57:18.406Z,26.02
2023-04-20T09:58:18.403Z,25.96
2023-04-20T09:59:18.452Z,25.84
2023-04-20T10:00:18.418Z,25.74
2023-04-20T10:01:18.459Z,25.65
2023-04-20T10:02:18.485Z,25.62
2023-04-20T10:03:18.526Z,25.57
2023-04-20T10:04:18.664Z,25.54
2023-04-20T10:05:18.599Z,25.51
2023-04-20T10:06:18.450Z,25.47
2023-04-20T10:07:18.524Z,25.45
2023-04-20T10:08:18.572Z,25.45
2023-04-20T10:09:18.577Z,25.41
2023-04-20T10:10:18.651Z,25.38
2023-04-20T10:11:18.628Z,25.37
2023-04-20T10:12:18.691Z,25.33
2023-04-20T10:13:18.649Z,25.28
2023-04-20T10:14:18.895Z,25.27
2023-04-20T10:15:18.723Z,25.24
2023-04-20T10:16:18.728Z,25.24
2023-04-20T10:17:18.743Z,25.20
2023-04-20T10:18:18.799Z,25.19
2023-04-20T10:19:18.670Z,25.17
2023-04-20T10:20:18.683Z,25.14
2023-04-20T10:21:18.711Z,25.10
2023-04-20T10:22:18.694Z,25.10
2023-04-20T10:23:18.844Z,25.09
2023-04-20T10:24:20.411Z,25.07
2023-04-20T10:25:18.784Z,25.05
2023-04-20T10:26:18.828Z,24.97
2023-04-20T10:27:18.830Z,25.00
2023-04-20T10:28:18.863Z,25.03
2023-04-20T10:29:18.846Z,25.07
2023-04-20T10:30:18.890Z,25.14
2023-04-20T10:31:18.963Z,25.20
2023-04-20T10:32:18.956Z,25.30
2023-04-20T10:33:19.023Z,25.37
2023-04-20T10:34:19.110Z,25.44
2023-04-20T10:35:19.032Z,25.54
2023-04-20T10:36:19.052Z,25.60
2023-04-20T10:37:19.165Z,25.68
2023-04-20T10:38:19.074Z,25.75
2023-04-20T10:39:19.754Z,25.81
2023-04-20T10:40:19.117Z,25.84
2023-04-20T10:41:19.220Z,25.92
2023-04-20T10:42:19.249Z,25.98
2023-04-20T10:43:19.275Z,26.07
2023-04-20T10:44:19.511Z,26.10
2023-04-20T10:45:19.357Z,26.15
2023-04-20T10:46:19.462Z,26.23
2023-04-20T10:47:19.434Z,26.32
2023-04-20T10:48:19.419Z,26.39
2023-04-20T10:49:19.561Z,26.42
2023-04-20T10:50:19.433Z,26.47
2023-04-20T10:51:19.431Z,26.53
2023-04-20T10:52:19.405Z,26.57
2023-04-20T10:53:19.464Z,26.63
2023-04-20T10:54:19.497Z,26.63
2023-04-20T10:55:19.429Z,26.63
2023-04-20T10:56:19.474Z,26.56
2023-04-20T10:57:19.611Z,26.44
2023-04-20T10:58:19.558Z,26.35
2023-04-20T10:59:19.829Z,26.25
2023-04-20T11:00:19.571Z,26.17
2023-04-20T11:01:19.634Z,26.10
2023-04-20T11:02:19.785Z,26.00
2023-04-20T11:03:19.866Z,25.95
2023-04-20T11:04:19.693Z,25.89
2023-04-20T11:05:19.961Z,25.79
2023-04-20T11:06:19.761Z,25.62
2023-04-20T11:07:19.784Z,25.57
2023-04-20T11:08:19.812Z,25.54
2023-04-20T11:09:20.024Z,25.54
2023-04-20T11:10:19.870Z,25.55
2023-04-20T11:11:19.893Z,25.58
2023-04-20T11:12:19.927Z,25.65
2023-04-20T11:13:19.923Z,25.71
2023-04-20T11:14:19.956Z,25.74
2023-04-20T11:15:19.981Z,25.78
2023-04-20T11:16:20.061Z,25.81
2023-04-20T11:17:20.009Z,25.88
2023-04-20T11:18:20.012Z,25.91
2023-04-20T11:19:20.087Z,25.98
2023-04-20T11:20:20.126Z,26.06
2023-04-20T11:21:20.187Z,26.10
2023-04-20T11:22:20.241Z,26.13
2023-04-20T11:23:20.266Z,26.16
2023-04-20T11:24:20.323Z,26.19
2023-04-20T11:25:20.444Z,26.23
2023-04-20T11:26:20.391Z,26.27
2023-04-20T11:27:20.420Z,26.30
2023-04-20T11:28:20.503Z,26.35
2023-04-20T11:29:20.608Z,26.37
2023-04-20T11:30:20.483Z,26.40
2023-04-20T11:31:20.506Z,26.43
2023-04-20T11:32:20.642Z,26.44
2023-04-20T11:33:20.561Z,26.46
2023-04-20T11:34:20.516Z,26.48
2023-04-20T11:35:20.518Z,26.48
2023-04-20T11:36:20.527Z,26.53
2023-04-20T11:37:20.537Z,26.53
2023-04-20T11:38:20.548Z,26.53
2023-04-20T11:39:20.563Z,26.51
2023-04-20T11:40:20.666Z,26.42
2023-04-20T11:41:20.724Z,26.29
2023-04-20T11:42:20.650Z,26.09
2023-04-20T11:43:20.698Z,25.88
2023-04-20T11:44:20.705Z,25.69
2023-04-20T11:45:20.733Z,25.51
2023-04-20T11:46:20.857Z,25.36
2023-04-20T11:47:20.833Z,25.20
2023-04-20T11:48:20.806Z,25.09
2023-04-20T11:49:20.873Z,24.90
2023-04-20T11:50:20.934Z,24.79
2023-04-20T11:51:20.910Z,24.72
2023-04-20T11:52:20.909Z,24.60
2023-04-20T11:53:20.960Z,24.47
2023-04-20T11:54:20.940Z,24.35
2023-04-20T11:55:20.972Z,24.25
2023-04-20T11:56:20.997Z,24.17
2023-04-20T11:57:21.084Z,24.10
2023-04-20T11:58:21.138Z,23.97
2023-04-20T11:59:21.650Z,23.90
2023-04-20T12:00:21.266Z,23.84
2023-04-20T12:01:21.347Z,23.83
